createdAt,value
2018-10-21T00:00:31.844Z,73.51
2018-10-21T00:03:02.424Z,73.81
2018-10-21T00:05:33.074Z,73.88
2018-10-21T00:08:03.753Z,73.90
2018-10-21T00:10:34.502Z,73.94
2018-10-21T00:13:05.155Z,73.87
2018-10-21T00:15:35.980Z,74.58
2018-10-21T00:18:06.607Z,74.35
2018-10-21T00:20:37.228Z,74.32
2018-10-21T00:23:07.945Z,74.35
2018-10-21T00:25:38.620Z,74.50
2018-10-21T00:28:09.367Z,74.96
2018-10-21T00:30:39.977Z,75.10
2018-10-21T00:33:10.798Z,74.88
2018-10-21T00:35:41.250Z,74.79
2018-10-21T00:38:11.862Z,74.99
2018-10-21T00:40:42.476Z,75.16
2018-10-21T00:43:13.112Z,75.78
2018-10-21T00:45:43.725Z,75.37
2018-10-21T00:48:14.339Z,75.65
2018-10-21T00:50:44.996Z,76.14
2018-10-21T00:53:15.629Z,76.79
2018-10-21T00:55:46.219Z,76.70
2018-10-21T00:58:16.866Z,76.33
2018-10-21T01:00:47.507Z,75.85
2018-10-21T01:03:18.244Z,76.58
2018-10-21T01:05:48.800Z,76.62
2018-10-21T01:08:19.481Z,76.26
2018-10-21T01:10:50.126Z,75.83
2018-10-21T01:13:20.897Z,75.91
2018-10-21T01:15:51.544Z,76.07
2018-10-21T01:18:22.146Z,76.09
2018-10-21T01:20:52.816Z,76.05
2018-10-21T01:23:23.429Z,75.66
2018-10-21T01:25:54.083Z,75.82
2018-10-21T01:28:24.760Z,75.99
2018-10-21T01:30:55.340Z,76.04
2018-10-21T01:33:25.969Z,76.38
2018-10-21T01:35:56.627Z,76.56
2018-10-21T01:38:27.382Z,76.69
2018-10-21T01:41:00.028Z,77.18
2018-10-21T01:43:31.903Z,76.62
2018-10-21T01:46:03.351Z,76.98
2018-10-21T01:48:34.191Z,77.41
2018-10-21T01:51:05.012Z,77.46
2018-10-21T01:53:35.564Z,77.67
2018-10-21T01:56:06.485Z,77.84
2018-10-21T01:58:37.131Z,78.05
2018-10-21T02:01:07.747Z,77.66
2018-10-21T02:03:38.347Z,76.90
2018-10-21T02:06:09.119Z,76.63
2018-10-21T02:08:39.789Z,77.03
2018-10-21T02:11:10.443Z,77.04
2018-10-21T02:13:41.091Z,76.61
2018-10-21T02:16:11.704Z,76.61
2018-10-21T02:18:42.346Z,76.75
2018-10-21T02:21:13.014Z,76.54
2018-10-21T02:23:43.659Z,76.29
2018-10-21T02:26:14.253Z,76.00
2018-10-21T02:28:44.844Z,76.63
2018-10-21T02:31:15.506Z,77.28
2018-10-21T02:33:46.159Z,77.38
2018-10-21T02:36:16.777Z,77.56
2018-10-21T02:38:47.395Z,77.53
2018-10-21T02:41:36.239Z,77.36
2018-10-21T02:44:08.485Z,77.57
2018-10-21T02:46:39.906Z,77.10
2018-10-21T02:49:11.326Z,77.29
2018-10-21T02:51:41.983Z,77.78
2018-10-21T02:54:12.604Z,77.97
2018-10-21T02:56:43.464Z,77.71
2018-10-21T02:59:14.223Z,77.24
2018-10-21T03:01:44.863Z,77.32
2018-10-21T03:04:15.496Z,77.35
2018-10-21T03:06:46.182Z,77.52
2018-10-21T03:09:16.914Z,77.14
2018-10-21T03:11:47.607Z,77.72
2018-10-21T03:14:18.552Z,77.74
2018-10-21T03:16:49.222Z,77.87
2018-10-21T03:19:19.891Z,77.85
2018-10-21T03:21:50.587Z,77.93
2018-10-21T03:24:21.377Z,77.83
2018-10-21T03:26:52.062Z,77.44
2018-10-21T03:29:22.667Z,77.49
2018-10-21T03:31:53.422Z,77.44
2018-10-21T03:34:24.651Z,77.66
2018-10-21T03:36:55.279Z,78.05
2018-10-21T03:39:25.919Z,78.19
2018-10-21T03:41:56.522Z,77.90
2018-10-21T03:44:27.139Z,77.88
2018-10-21T03:46:57.779Z,78.45
2018-10-21T03:49:28.438Z,77.70
2018-10-21T03:51:59.106Z,77.96
2018-10-21T03:54:29.823Z,77.72
2018-10-21T03:57:00.547Z,77.51
2018-10-21T03:59:31.199Z,77.56
2018-10-21T04:02:01.878Z,77.82
2018-10-21T04:04:32.514Z,78.02
2018-10-21T04:07:03.179Z,77.89
2018-10-21T04:09:33.815Z,77.99
2018-10-21T04:12:04.528Z,77.79
2018-10-21T04:14:35.178Z,77.62
2018-10-21T04:17:05.832Z,77.79
2018-10-21T04:19:36.436Z,77.90
2018-10-21T04:22:07.090Z,77.75
2018-10-21T04:24:37.783Z,77.48
2018-10-21T04:27:08.410Z,77.70
2018-10-21T04:29:39.008Z,77.75
2018-10-21T04:32:09.307Z,77.74
2018-10-21T04:34:39.915Z,77.59
2018-10-21T04:37:27.655Z,77.89
2018-10-21T04:40:18.030Z,77.96
2018-10-21T04:42:49.031Z,77.93
2018-10-21T04:45:21.083Z,78.24
2018-10-21T04:47:51.722Z,78.21
2018-10-21T04:50:22.375Z,78.29
2018-10-21T04:52:53.042Z,78.49
2018-10-21T04:55:23.672Z,78.67
2018-10-21T04:57:54.350Z,78.66
2018-10-21T05:00:24.972Z,78.51
2018-10-21T05:02:55.685Z,78.42
2018-10-21T05:05:26.278Z,78.25
2018-10-21T05:07:56.951Z,78.36
2018-10-21T05:10:29.755Z,78.17
2018-10-21T05:13:00.448Z,77.97
2018-10-21T05:15:32.271Z,78.23
2018-10-21T05:18:02.982Z,77.94
2018-10-21T05:20:33.611Z,78.16
2018-10-21T05:23:04.327Z,77.72
2018-10-21T05:25:34.897Z,77.80
2018-10-21T05:28:05.688Z,77.88
2018-10-21T05:30:36.252Z,78.15
2018-10-21T05:33:07.376Z,78.33
2018-10-21T05:35:37.975Z,78.29
2018-10-21T05:38:08.642Z,77.62
2018-10-21T05:40:39.268Z,77.75
2018-10-21T05:43:09.980Z,77.88
2018-10-21T05:45:40.605Z,77.95
2018-10-21T05:48:11.257Z,77.79
2018-10-21T05:50:41.892Z,78.08
2018-10-21T05:53:12.563Z,77.70
2018-10-21T05:55:43.423Z,77.97
2018-10-21T05:58:14.035Z,78.11
2018-10-21T06:00:44.666Z,78.04
2018-10-21T06:03:15.287Z,78.54
2018-10-21T06:05:49.647Z,78.46
2018-10-21T06:08:20.312Z,78.57
2018-10-21T06:10:50.992Z,78.34
2018-10-21T06:13:21.642Z,78.24
2018-10-21T06:15:52.363Z,77.67
2018-10-21T06:18:24.917Z,77.54
2018-10-21T06:20:59.150Z,77.42
2018-10-21T06:23:29.781Z,77.74
2018-10-21T06:26:00.392Z,77.69
2018-10-21T06:28:31.024Z,77.26
2018-10-21T06:31:01.727Z,76.92
2018-10-21T06:33:32.416Z,76.47
2018-10-21T06:36:03.215Z,75.78
2018-10-21T06:38:33.895Z,75.41
2018-10-21T06:41:04.602Z,74.71
2018-10-21T06:43:35.236Z,73.86
2018-10-21T06:46:06.282Z,73.01
2018-10-21T06:48:36.968Z,71.78
2018-10-21T06:51:12.983Z,70.60
2018-10-21T06:53:48.959Z,69.49
2018-10-21T06:56:24.906Z,67.76
2018-10-21T06:59:00.805Z,62.17
2018-10-21T07:01:36.871Z,57.58
2018-10-21T07:04:12.907Z,54.45
2018-10-21T07:06:48.883Z,50.89
2018-10-21T07:09:24.730Z,48.20
2018-10-21T07:12:00.660Z,45.64
2018-10-21T07:14:36.532Z,43.67
2018-10-21T07:17:12.511Z,42.21
2018-10-21T07:19:48.474Z,40.36
2018-10-21T07:22:24.451Z,39.19
2018-10-21T07:25:00.344Z,38.39
2018-10-21T07:27:36.411Z,37.19
2018-10-21T07:30:13.321Z,37.28
2018-10-21T07:32:49.295Z,37.48
2018-10-21T07:35:25.294Z,37.44
2018-10-21T07:38:01.299Z,37.47
2018-10-21T07:40:37.952Z,35.39
2018-10-21T07:43:13.930Z,35.01
2018-10-21T07:45:49.872Z,34.79
2018-10-21T07:48:25.677Z,33.79
2018-10-21T07:51:01.671Z,33.89
2018-10-21T07:53:37.605Z,33.10
2018-10-21T07:56:13.522Z,35.54
2018-10-21T07:58:49.632Z,35.32
2018-10-21T08:01:25.812Z,35.25
2018-10-21T08:04:01.577Z,34.38
2018-10-21T08:06:54.474Z,35.91
2018-10-21T08:09:30.384Z,37.93
2018-10-21T08:12:06.312Z,38.19
2018-10-21T08:14:42.161Z,38.81
2018-10-21T08:17:18.196Z,38.57
2018-10-21T08:19:54.206Z,39.08
2018-10-21T08:22:30.097Z,38.23
2018-10-21T08:25:06.227Z,38.21
2018-10-21T08:27:42.269Z,37.14
2018-10-21T08:30:48.719Z,37.10
2018-10-21T08:33:24.517Z,36.69
2018-10-21T08:36:00.640Z,36.55
2018-10-21T08:38:36.851Z,35.93
2018-10-21T08:41:12.727Z,35.84
2018-10-21T08:43:43.083Z,35.50
2018-10-21T08:46:13.798Z,35.24
2018-10-21T08:48:44.459Z,34.93
2018-10-21T08:51:15.124Z,35.02
2018-10-21T08:53:45.750Z,34.59
2018-10-21T08:56:16.376Z,33.97
2018-10-21T08:58:47.031Z,33.38
2018-10-21T09:01:17.861Z,33.00
2018-10-21T09:03:48.421Z,32.85
2018-10-21T09:06:19.163Z,33.25
2018-10-21T09:08:49.800Z,33.53
2018-10-21T09:11:20.453Z,33.35
2018-10-21T09:13:51.137Z,32.47
2018-10-21T09:16:21.870Z,32.90
2018-10-21T09:18:52.483Z,32.33
2018-10-21T09:21:23.076Z,32.47
2018-10-21T09:23:53.852Z,31.80
2018-10-21T09:26:24.527Z,31.22
2018-10-21T09:28:55.204Z,29.94
2018-10-21T09:31:25.862Z,29.05
2018-10-21T09:33:56.566Z,29.94
2018-10-21T09:36:27.292Z,28.86
2018-10-21T09:38:57.911Z,30.21
2018-10-21T09:41:28.574Z,30.02
2018-10-21T09:43:59.249Z,29.54
2018-10-21T09:46:29.944Z,29.98
2018-10-21T09:49:00.599Z,30.98
2018-10-21T09:51:31.276Z,31.01
2018-10-21T09:54:01.926Z,31.86
2018-10-21T09:56:32.591Z,32.16
2018-10-21T09:59:03.267Z,30.46
2018-10-21T10:01:39.091Z,30.26
2018-10-21T10:04:09.974Z,30.36
2018-10-21T10:06:40.674Z,30.83
2018-10-21T10:09:13.060Z,31.04
2018-10-21T10:11:44.226Z,30.22
2018-10-21T10:14:14.890Z,30.16
2018-10-21T10:16:45.553Z,30.85
2018-10-21T10:19:16.297Z,29.79
2018-10-21T10:21:46.872Z,29.52
2018-10-21T10:26:46.896Z,29.61
2018-10-21T10:29:17.495Z,29.67
2018-10-21T10:31:48.107Z,28.54
2018-10-21T10:34:18.848Z,28.41
2018-10-21T10:36:49.450Z,28.26
2018-10-21T10:42:18.196Z,26.71
2018-10-21T10:44:48.936Z,27.53
2018-10-21T10:47:19.587Z,28.57
2018-10-21T10:49:50.237Z,28.30
2018-10-21T10:52:21.061Z,28.33
2018-10-21T10:54:51.701Z,28.56
2018-10-21T10:57:22.703Z,29.17
2018-10-21T10:59:53.407Z,29.50
2018-10-21T11:02:24.040Z,29.59
2018-10-21T11:04:54.672Z,29.82
2018-10-21T11:07:25.325Z,27.82
2018-10-21T11:09:56.031Z,27.84
2018-10-21T11:12:26.739Z,27.21
2018-10-21T11:14:57.428Z,26.79
2018-10-21T11:17:28.119Z,26.49
2018-10-21T11:19:58.780Z,26.92
2018-10-21T11:22:29.490Z,26.46
2018-10-21T11:25:00.131Z,26.91
2018-10-21T11:27:31.131Z,26.34
2018-10-21T11:30:01.734Z,26.22
2018-10-21T11:32:32.445Z,25.84
2018-10-21T11:35:03.100Z,25.26
2018-10-21T11:37:33.940Z,24.86
2018-10-21T11:40:04.599Z,24.46
2018-10-21T11:42:35.229Z,24.33
2018-10-21T11:45:06.885Z,24.55
2018-10-21T11:47:37.579Z,24.92
2018-10-21T11:50:08.526Z,24.46
2018-10-21T11:52:39.304Z,24.06
2018-10-21T11:55:10.333Z,23.79
2018-10-21T11:57:40.951Z,24.63
2018-10-21T12:00:11.762Z,24.63
2018-10-21T12:02:42.429Z,24.50
2018-10-21T12:05:12.700Z,25.38
2018-10-21T12:07:43.371Z,26.27
2018-10-21T12:10:14.126Z,27.15
2018-10-21T12:12:44.811Z,28.55
2018-10-21T12:15:15.535Z,28.49
2018-10-21T12:17:46.240Z,28.07
2018-10-21T12:20:16.940Z,28.06
2018-10-21T12:22:47.749Z,27.18
2018-10-21T12:25:18.397Z,27.82
2018-10-21T12:27:49.072Z,27.95
2018-10-21T12:30:19.730Z,27.38
2018-10-21T12:32:50.368Z,27.93
2018-10-21T12:35:21.020Z,28.41
2018-10-21T12:37:51.752Z,28.07
2018-10-21T12:40:22.401Z,27.32
2018-10-21T12:42:53.154Z,27.02
2018-10-21T12:45:23.778Z,27.54
2018-10-21T12:47:54.509Z,27.87
2018-10-21T12:50:25.232Z,28.14
2018-10-21T12:52:55.891Z,28.18
2018-10-21T12:55:26.594Z,27.45
2018-10-21T12:57:57.334Z,27.81
2018-10-21T13:00:28.038Z,27.24
2018-10-21T13:03:02.483Z,26.43
2018-10-21T13:05:33.227Z,25.86
2018-10-21T13:08:03.963Z,25.64
2018-10-21T13:10:34.625Z,24.73
2018-10-21T13:13:05.585Z,24.81
2018-10-21T13:15:36.325Z,24.39
2018-10-21T13:18:07.482Z,24.61
2018-10-21T13:20:38.197Z,24.00
2018-10-21T13:23:08.953Z,24.40
2018-10-21T13:25:39.600Z,25.08
2018-10-21T13:28:10.347Z,25.70
2018-10-21T13:30:40.993Z,25.70
2018-10-21T13:33:11.728Z,25.33
2018-10-21T13:35:42.456Z,25.12
2018-10-21T13:38:13.127Z,24.53
2018-10-21T13:40:43.923Z,24.75
2018-10-21T13:43:17.047Z,24.44
2018-10-21T13:45:47.626Z,25.21
2018-10-21T13:48:18.266Z,25.46
2018-10-21T13:50:48.994Z,25.92
2018-10-21T13:53:19.861Z,27.06
2018-10-21T13:55:50.637Z,26.78
2018-10-21T13:58:21.343Z,26.75
2018-10-21T14:00:52.118Z,26.75
2018-10-21T14:03:22.771Z,26.81
2018-10-21T14:05:53.509Z,26.50
2018-10-21T14:08:24.150Z,26.05
2018-10-21T14:10:54.911Z,25.38
2018-10-21T14:13:25.658Z,25.61
2018-10-21T14:15:56.357Z,28.32
2018-10-21T14:18:26.956Z,27.55
2018-10-21T14:20:57.819Z,26.46
2018-10-21T14:23:28.566Z,27.12
2018-10-21T14:25:59.312Z,26.61
2018-10-21T14:28:30.043Z,27.44
2018-10-21T14:31:00.833Z,27.78
2018-10-21T14:33:31.531Z,27.59
2018-10-21T14:36:02.293Z,27.13
2018-10-21T14:38:32.943Z,26.61
2018-10-21T14:41:03.566Z,26.61
2018-10-21T14:43:34.208Z,26.23
2018-10-21T14:46:05.068Z,26.98
2018-10-21T14:48:35.600Z,26.30
2018-10-21T14:51:06.289Z,27.43
2018-10-21T14:53:36.903Z,26.34
2018-10-21T14:56:08.134Z,26.58
2018-10-21T14:58:38.899Z,28.08
2018-10-21T15:01:09.606Z,28.22
2018-10-21T15:03:40.312Z,28.20
2018-10-21T15:06:10.983Z,28.73
2018-10-21T15:08:41.596Z,28.92
2018-10-21T15:11:12.308Z,29.67
2018-10-21T15:13:43.028Z,30.92
2018-10-21T15:16:14.135Z,30.97
2018-10-21T15:18:44.651Z,31.92
2018-10-21T15:21:15.315Z,32.53
2018-10-21T15:23:45.973Z,31.68
2018-10-21T15:26:16.647Z,32.08
2018-10-21T15:28:47.248Z,32.23
2018-10-21T15:31:17.910Z,33.00
2018-10-21T15:33:48.592Z,33.36
2018-10-21T15:36:19.238Z,32.76
2018-10-21T15:38:49.912Z,33.19
2018-10-21T15:41:20.664Z,33.61
2018-10-21T15:43:51.292Z,33.16
2018-10-21T15:46:22.000Z,33.51
2018-10-21T15:48:52.589Z,33.54
2018-10-21T15:51:23.197Z,34.46
2018-10-21T15:53:53.860Z,34.49
2018-10-21T15:56:24.535Z,35.16
2018-10-21T15:58:55.200Z,35.10
2018-10-21T16:01:25.795Z,35.31
2018-10-21T16:03:56.454Z,35.69
2018-10-21T16:06:27.164Z,36.39
2018-10-21T16:08:57.888Z,37.33
2018-10-21T16:11:28.624Z,37.86
2018-10-21T16:13:59.313Z,37.71
2018-10-21T16:16:29.975Z,38.08
2018-10-21T16:19:00.635Z,38.56
2018-10-21T16:21:31.285Z,39.50
2018-10-21T16:24:01.976Z,40.69
2018-10-21T16:26:32.665Z,40.66
2018-10-21T16:29:03.337Z,41.58
2018-10-21T16:31:33.982Z,42.29
2018-10-21T16:34:05.282Z,42.78
2018-10-21T16:36:35.939Z,44.24
2018-10-21T16:39:10.082Z,44.59
2018-10-21T16:41:40.795Z,45.59
2018-10-21T16:44:12.505Z,46.33
2018-10-21T16:46:43.133Z,46.54
2018-10-21T16:49:13.906Z,47.12
2018-10-21T16:51:44.571Z,47.59
2018-10-21T16:54:15.334Z,47.76
2018-10-21T16:56:45.965Z,48.13
2018-10-21T16:59:16.675Z,48.21
2018-10-21T17:01:47.207Z,48.60
2018-10-21T17:04:17.888Z,49.52
2018-10-21T17:06:48.640Z,50.25
2018-10-21T17:09:19.368Z,50.60
2018-10-21T17:11:49.894Z,50.54
2018-10-21T17:14:20.559Z,50.82
2018-10-21T17:16:51.230Z,51.27
2018-10-21T17:19:21.841Z,51.46
2018-10-21T17:21:52.477Z,51.96
2018-10-21T17:24:23.234Z,52.31
2018-10-21T17:26:53.817Z,52.37
2018-10-21T17:29:24.487Z,52.26
2018-10-21T17:31:55.201Z,52.61
2018-10-21T17:34:26.069Z,53.26
2018-10-21T17:36:56.705Z,53.33
2018-10-21T17:39:27.370Z,54.32
2018-10-21T17:41:58.048Z,54.05
2018-10-21T17:44:28.668Z,54.37
2018-10-21T17:46:59.308Z,54.40
2018-10-21T17:49:29.931Z,54.57
2018-10-21T17:52:00.693Z,54.99
2018-10-21T17:54:31.287Z,55.37
2018-10-21T17:57:02.511Z,55.12
2018-10-21T17:59:33.111Z,55.63
2018-10-21T18:02:03.854Z,55.71
2018-10-21T18:04:34.546Z,55.97
2018-10-21T18:07:05.750Z,56.25
2018-10-21T18:09:36.356Z,56.70
2018-10-21T18:12:07.308Z,56.58
2018-10-21T18:14:37.984Z,56.73
2018-10-21T18:17:08.686Z,56.79
2018-10-21T18:19:39.452Z,57.03
2018-10-21T18:22:10.164Z,57.29
2018-10-21T18:24:40.748Z,57.47
2018-10-21T18:27:11.483Z,58.02
2018-10-21T18:29:42.152Z,58.42
2018-10-21T18:32:12.790Z,58.51
2018-10-21T18:34:44.884Z,58.26
2018-10-21T18:37:16.246Z,58.67
2018-10-21T18:39:47.201Z,58.89
2018-10-21T18:42:17.975Z,58.65
2018-10-21T18:44:51.048Z,58.79
2018-10-21T18:47:21.642Z,58.80
2018-10-21T18:49:52.336Z,59.01
2018-10-21T18:52:22.988Z,59.10
2018-10-21T18:54:54.063Z,59.73
2018-10-21T18:57:24.700Z,59.70
2018-10-21T18:59:55.447Z,59.72
2018-10-21T19:02:26.088Z,59.98
2018-10-21T19:04:56.814Z,60.14
2018-10-21T19:07:27.478Z,60.51
2018-10-21T19:09:58.192Z,61.00
2018-10-21T19:12:28.912Z,60.82
2018-10-21T19:14:59.633Z,61.34
2018-10-21T19:17:30.283Z,61.48
2018-10-21T19:20:00.969Z,61.32
2018-10-21T19:22:31.635Z,61.53
2018-10-21T19:25:02.374Z,61.39
2018-10-21T19:27:33.040Z,61.48
2018-10-21T19:30:03.991Z,62.05
2018-10-21T19:32:34.654Z,62.17
2018-10-21T19:35:05.594Z,62.08
2018-10-21T19:37:36.295Z,62.48
2018-10-21T19:40:08.218Z,62.39
2018-10-21T19:42:38.939Z,62.46
2018-10-21T19:45:10.878Z,63.37
2018-10-21T19:47:41.743Z,63.40
2018-10-21T19:50:13.745Z,63.33
2018-10-21T19:52:44.736Z,63.88
2018-10-21T19:55:15.554Z,63.95
2018-10-21T19:57:46.132Z,64.14
2018-10-21T20:00:17.613Z,64.05
2018-10-21T20:02:48.221Z,64.35
2018-10-21T20:05:18.961Z,64.55
2018-10-21T20:07:49.587Z,64.62
2018-10-21T20:10:20.448Z,64.57
2018-10-21T20:12:51.011Z,64.08
2018-10-21T20:15:21.700Z,64.22
2018-10-21T20:17:52.411Z,64.70
2018-10-21T20:20:23.060Z,65.32
2018-10-21T20:22:53.707Z,64.81
2018-10-21T20:25:24.345Z,64.86
2018-10-21T20:27:55.027Z,65.05
2018-10-21T20:30:25.660Z,65.06
2018-10-21T20:32:56.379Z,66.42
2018-10-21T20:35:27.020Z,66.16
2018-10-21T20:37:57.653Z,65.58
2018-10-21T20:40:28.336Z,64.95
2018-10-21T20:42:58.975Z,65.42
2018-10-21T20:45:29.624Z,65.05
2018-10-21T20:48:00.242Z,65.13
2018-10-21T20:50:30.928Z,65.45
2018-10-21T20:53:01.613Z,65.53
2018-10-21T20:55:32.247Z,65.48
2018-10-21T20:58:03.009Z,65.56
2018-10-21T21:00:33.599Z,65.58
2018-10-21T21:03:04.249Z,65.79
2018-10-21T21:05:34.870Z,65.98
2018-10-21T21:08:05.730Z,65.98
2018-10-21T21:10:36.336Z,66.72
2018-10-21T21:13:07.070Z,66.79
2018-10-21T21:15:38.932Z,66.94
2018-10-21T21:18:09.677Z,67.24
2018-10-21T21:20:40.456Z,67.23
2018-10-21T21:23:11.641Z,67.19
2018-10-21T21:25:42.372Z,67.36
2018-10-21T21:28:13.310Z,67.61
2018-10-21T21:30:44.082Z,68.00
2018-10-21T21:33:15.504Z,68.34
2018-10-21T21:35:46.275Z,68.44
2018-10-21T21:38:17.325Z,68.64
2018-10-21T21:40:48.115Z,68.97
2018-10-21T21:43:18.790Z,69.09
2018-10-21T21:45:49.843Z,69.15
2018-10-21T21:48:20.769Z,68.99
2018-10-21T21:50:51.639Z,69.33
2018-10-21T21:53:22.456Z,69.36
2018-10-21T21:55:53.083Z,69.49
2018-10-21T21:58:23.701Z,69.47
2018-10-21T22:00:54.419Z,69.67
2018-10-21T22:03:25.068Z,69.51
2018-10-21T22:05:55.759Z,69.51
2018-10-21T22:08:26.406Z,69.51
2018-10-21T22:10:57.101Z,69.49
2018-10-21T22:13:27.780Z,69.69
2018-10-21T22:15:58.465Z,70.03
2018-10-21T22:18:29.055Z,69.77
2018-10-21T22:20:59.691Z,69.83
2018-10-21T22:23:30.615Z,70.07
2018-10-21T22:26:01.288Z,70.14
2018-10-21T22:28:31.935Z,70.20
2018-10-21T22:31:02.536Z,70.51
2018-10-21T22:33:33.172Z,70.80
2018-10-21T22:36:03.950Z,70.47
2018-10-21T22:38:34.535Z,70.47
2018-10-21T22:41:05.447Z,70.80
2018-10-21T22:43:36.111Z,71.02
2018-10-21T22:46:07.188Z,71.00
2018-10-21T22:48:38.037Z,71.22
2018-10-21T22:51:08.820Z,71.25
2018-10-21T22:53:39.464Z,71.14
2018-10-21T22:56:10.138Z,70.92
2018-10-21T22:58:40.765Z,71.17
2018-10-21T23:01:11.356Z,71.01
2018-10-21T23:03:41.980Z,70.97
2018-10-21T23:06:12.728Z,71.01
2018-10-21T23:08:43.432Z,70.66
2018-10-21T23:11:14.076Z,70.37
2018-10-21T23:13:44.721Z,70.19
2018-10-21T23:16:15.442Z,70.11
2018-10-21T23:18:46.160Z,69.80
2018-10-21T23:21:16.778Z,70.23
2018-10-21T23:23:47.394Z,70.19
2018-10-21T23:26:18.027Z,70.22
2018-10-21T23:28:48.692Z,70.14
2018-10-21T23:31:19.319Z,70.25
2018-10-21T23:33:49.889Z,70.26
2018-10-21T23:36:20.507Z,70.24
2018-10-21T23:38:51.108Z,70.42
2018-10-21T23:41:21.772Z,70.18
2018-10-21T23:43:52.348Z,70.13
2018-10-21T23:46:23.044Z,70.32
2018-10-21T23:48:53.662Z,70.52
2018-10-21T23:51:24.289Z,70.51
2018-10-21T23:53:54.947Z,70.11
2018-10-21T23:56:25.655Z,70.67
2018-10-21T23:58:56.258Z,70.47
